sensor_id;sensor_type;location;lat;lon;timestamp;temperature;humidity
8103;DHT22;4094;49.948;11.574;2022-08-18T00:01:39;25.20;46.00
8103;DHT22;4094;49.948;11.574;2022-08-18T00:04:09;25.20;46.00
8103;DHT22;4094;49.948;11.574;2022-08-18T00:06:58;25.20;46.20
8103;DHT22;4094;49.948;11.574;2022-08-18T00:09:29;25.10;46.30
8103;DHT22;4094;49.948;11.574;2022-08-18T00:12:01;25.10;46.40
8103;DHT22;4094;49.948;11.574;2022-08-18T00:14:31;25.10;46.50
8103;DHT22;4094;49.948;11.574;2022-08-18T00:17:00;25.10;46.40
8103;DHT22;4094;49.948;11.574;2022-08-18T00:19:30;25.10;46.50
8103;DHT22;4094;49.948;11.574;2022-08-18T00:22:17;25.10;46.50
8103;DHT22;4094;49.948;11.574;2022-08-18T00:24:51;25.10;46.50
8103;DHT22;4094;49.948;11.574;2022-08-18T00:27:23;25.10;46.50
8103;DHT22;4094;49.948;11.574;2022-08-18T00:29:57;25.10;46.40
8103;DHT22;4094;49.948;11.574;2022-08-18T00:32:29;25.00;46.40
8103;DHT22;4094;49.948;11.574;2022-08-18T00:35:05;25.00;46.50
8103;DHT22;4094;49.948;11.574;2022-08-18T00:37:35;25.00;46.80
8103;DHT22;4094;49.948;11.574;2022-08-18T00:40:09;25.00;46.80
8103;DHT22;4094;49.948;11.574;2022-08-18T00:42:41;25.00;46.80
8103;DHT22;4094;49.948;11.574;2022-08-18T00:45:14;25.00;47.00
8103;DHT22;4094;49.948;11.574;2022-08-18T00:47:43;24.90;47.00
8103;DHT22;4094;49.948;11.574;2022-08-18T00:50:15;24.90;47.00
8103;DHT22;4094;49.948;11.574;2022-08-18T00:52:48;24.90;47.10
8103;DHT22;4094;49.948;11.574;2022-08-18T00:55:20;24.90;47.00
8103;DHT22;4094;49.948;11.574;2022-08-18T00:57:51;24.90;47.00
8103;DHT22;4094;49.948;11.574;2022-08-18T01:00:22;24.80;47.20
8103;DHT22;4094;49.948;11.574;2022-08-18T01:02:55;24.80;47.00
8103;DHT22;4094;49.948;11.574;2022-08-18T01:05:28;24.80;47.20
8103;DHT22;4094;49.948;11.574;2022-08-18T01:08:01;24.80;47.10
8103;DHT22;4094;49.948;11.574;2022-08-18T01:10:33;24.80;47.20
8103;DHT22;4094;49.948;11.574;2022-08-18T01:13:02;24.80;47.30
8103;DHT22;4094;49.948;11.574;2022-08-18T01:15:31;24.70;47.50
8103;DHT22;4094;49.948;11.574;2022-08-18T01:18:03;24.70;47.20
8103;DHT22;4094;49.948;11.574;2022-08-18T01:20:56;24.70;47.30
8103;DHT22;4094;49.948;11.574;2022-08-18T01:23:55;24.70;47.30
8103;DHT22;4094;49.948;11.574;2022-08-18T01:26:26;24.70;47.40
8103;DHT22;4094;49.948;11.574;2022-08-18T01:29:04;24.60;47.50
8103;DHT22;4094;49.948;11.574;2022-08-18T01:31:48;24.60;47.40
8103;DHT22;4094;49.948;11.574;2022-08-18T01:34:25;24.60;47.40
8103;DHT22;4094;49.948;11.574;2022-08-18T01:36:55;24.60;47.40
8103;DHT22;4094;49.948;11.574;2022-08-18T01:39:26;24.60;47.40
8103;DHT22;4094;49.948;11.574;2022-08-18T01:42:16;24.60;47.40
8103;DHT22;4094;49.948;11.574;2022-08-18T01:44:47;24.60;47.60
8103;DHT22;4094;49.948;11.574;2022-08-18T01:47:17;24.50;47.70
8103;DHT22;4094;49.948;11.574;2022-08-18T01:49:47;24.50;47.60
8103;DHT22;4094;49.948;11.574;2022-08-18T01:52:18;24.50;47.60
8103;DHT22;4094;49.948;11.574;2022-08-18T01:54:50;24.50;47.70
8103;DHT22;4094;49.948;11.574;2022-08-18T01:57:20;24.40;47.70
8103;DHT22;4094;49.948;11.574;2022-08-18T01:59:50;24.40;47.80
8103;DHT22;4094;49.948;11.574;2022-08-18T02:02:23;24.40;47.80
8103;DHT22;4094;49.948;11.574;2022-08-18T02:04:55;24.40;47.90
8103;DHT22;4094;49.948;11.574;2022-08-18T02:07:26;24.40;48.10
8103;DHT22;4094;49.948;11.574;2022-08-18T02:10:05;24.40;48.00
8103;DHT22;4094;49.948;11.574;2022-08-18T02:12:39;24.30;48.30
8103;DHT22;4094;49.948;11.574;2022-08-18T02:15:10;24.30;48.20
8103;DHT22;4094;49.948;11.574;2022-08-18T02:17:42;24.30;48.80
8103;DHT22;4094;49.948;11.574;2022-08-18T02:20:14;24.30;48.30
8103;DHT22;4094;49.948;11.574;2022-08-18T02:22:44;24.30;49.00
8103;DHT22;4094;49.948;11.574;2022-08-18T02:25:16;24.40;49.30
8103;DHT22;4094;49.948;11.574;2022-08-18T02:27:45;24.40;48.50
8103;DHT22;4094;49.948;11.574;2022-08-18T02:30:16;24.40;48.20
8103;DHT22;4094;49.948;11.574;2022-08-18T02:32:46;24.50;48.10
8103;DHT22;4094;49.948;11.574;2022-08-18T02:35:16;24.50;47.90
8103;DHT22;4094;49.948;11.574;2022-08-18T02:37:45;24.50;47.70
8103;DHT22;4094;49.948;11.574;2022-08-18T02:40:16;24.60;47.70
8103;DHT22;4094;49.948;11.574;2022-08-18T02:42:46;24.60;47.60
8103;DHT22;4094;49.948;11.574;2022-08-18T02:45:16;24.70;47.50
8103;DHT22;4094;49.948;11.574;2022-08-18T02:47:50;24.80;47.50
8103;DHT22;4094;49.948;11.574;2022-08-18T02:50:20;24.80;47.30
8103;DHT22;4094;49.948;11.574;2022-08-18T02:52:49;24.80;47.20
8103;DHT22;4094;49.948;11.574;2022-08-18T02:55:20;24.90;47.20
8103;DHT22;4094;49.948;11.574;2022-08-18T02:57:49;24.90;47.70
8103;DHT22;4094;49.948;11.574;2022-08-18T03:00:20;25.00;47.00
8103;DHT22;4094;49.948;11.574;2022-08-18T03:02:50;25.00;47.00
8103;DHT22;4094;49.948;11.574;2022-08-18T03:05:20;25.00;47.50
8103;DHT22;4094;49.948;11.574;2022-08-18T03:07:49;25.10;47.00
8103;DHT22;4094;49.948;11.574;2022-08-18T03:10:20;25.10;47.50
8103;DHT22;4094;49.948;11.574;2022-08-18T03:13:00;25.20;47.30
8103;DHT22;4094;49.948;11.574;2022-08-18T03:15:30;25.20;47.20
8103;DHT22;4094;49.948;11.574;2022-08-18T03:17:59;25.20;47.10
8103;DHT22;4094;49.948;11.574;2022-08-18T03:20:28;25.20;47.00
8103;DHT22;4094;49.948;11.574;2022-08-18T03:22:58;25.20;46.90
8103;DHT22;4094;49.948;11.574;2022-08-18T03:25:43;25.20;47.10
8103;DHT22;4094;49.948;11.574;2022-08-18T03:28:12;25.20;47.30
8103;DHT22;4094;49.948;11.574;2022-08-18T03:30:42;25.20;47.10
8103;DHT22;4094;49.948;11.574;2022-08-18T03:33:11;25.20;47.20
8103;DHT22;4094;49.948;11.574;2022-08-18T03:35:40;25.20;47.30
8103;DHT22;4094;49.948;11.574;2022-08-18T03:38:09;25.20;47.20
8103;DHT22;4094;49.948;11.574;2022-08-18T03:40:39;25.20;47.30
8103;DHT22;4094;49.948;11.574;2022-08-18T03:43:09;25.20;47.10
8103;DHT22;4094;49.948;11.574;2022-08-18T03:46:00;25.20;47.10
8103;DHT22;4094;49.948;11.574;2022-08-18T03:48:30;25.20;47.10
8103;DHT22;4094;49.948;11.574;2022-08-18T03:51:02;25.20;47.10
8103;DHT22;4094;49.948;11.574;2022-08-18T03:53:34;25.20;47.60
8103;DHT22;4094;49.948;11.574;2022-08-18T03:56:08;25.20;47.40
8103;DHT22;4094;49.948;11.574;2022-08-18T03:58:46;25.20;47.20
8103;DHT22;4094;49.948;11.574;2022-08-18T04:01:19;25.20;47.20
8103;DHT22;4094;49.948;11.574;2022-08-18T04:03:56;25.20;47.30
8103;DHT22;4094;49.948;11.574;2022-08-18T04:06:29;25.20;47.10
8103;DHT22;4094;49.948;11.574;2022-08-18T04:09:02;25.20;47.20
8103;DHT22;4094;49.948;11.574;2022-08-18T04:11:34;25.20;47.10
8103;DHT22;4094;49.948;11.574;2022-08-18T04:14:04;25.20;47.40
8103;DHT22;4094;49.948;11.574;2022-08-18T04:16:33;25.20;47.30
8103;DHT22;4094;49.948;11.574;2022-08-18T04:19:03;25.20;47.60
8103;DHT22;4094;49.948;11.574;2022-08-18T04:21:36;25.20;47.70
8103;DHT22;4094;49.948;11.574;2022-08-18T04:24:05;25.20;47.70
8103;DHT22;4094;49.948;11.574;2022-08-18T04:26:39;25.20;47.40
8103;DHT22;4094;49.948;11.574;2022-08-18T04:29:09;25.20;47.40
8103;DHT22;4094;49.948;11.574;2022-08-18T04:31:38;25.20;47.50
8103;DHT22;4094;49.948;11.574;2022-08-18T04:34:08;25.20;47.50
8103;DHT22;4094;49.948;11.574;2022-08-18T04:36:39;25.20;47.60
8103;DHT22;4094;49.948;11.574;2022-08-18T04:39:11;25.20;48.00
8103;DHT22;4094;49.948;11.574;2022-08-18T04:41:42;25.20;48.50
8103;DHT22;4094;49.948;11.574;2022-08-18T04:44:12;25.20;48.20
8103;DHT22;4094;49.948;11.574;2022-08-18T04:46:44;25.20;48.30
8103;DHT22;4094;49.948;11.574;2022-08-18T04:49:15;25.20;48.00
8103;DHT22;4094;49.948;11.574;2022-08-18T04:51:47;25.20;47.90
8103;DHT22;4094;49.948;11.574;2022-08-18T04:54:56;25.20;48.00
8103;DHT22;4094;49.948;11.574;2022-08-18T04:57:25;25.20;47.90
8103;DHT22;4094;49.948;11.574;2022-08-18T05:00:00;25.20;47.90
8103;DHT22;4094;49.948;11.574;2022-08-18T05:02:29;25.20;47.90
8103;DHT22;4094;49.948;11.574;2022-08-18T05:05:00;25.20;48.00
8103;DHT22;4094;49.948;11.574;2022-08-18T05:07:31;25.20;47.90
8103;DHT22;4094;49.948;11.574;2022-08-18T05:10:01;25.20;47.70
8103;DHT22;4094;49.948;11.574;2022-08-18T05:12:31;25.20;47.50
8103;DHT22;4094;49.948;11.574;2022-08-18T05:15:01;25.20;47.40
8103;DHT22;4094;49.948;11.574;2022-08-18T05:17:30;25.20;47.40
8103;DHT22;4094;49.948;11.574;2022-08-18T05:20:00;25.20;47.40
8103;DHT22;4094;49.948;11.574;2022-08-18T05:22:36;25.20;47.40
8103;DHT22;4094;49.948;11.574;2022-08-18T05:25:07;25.20;47.50
8103;DHT22;4094;49.948;11.574;2022-08-18T05:27:40;25.20;47.60
8103;DHT22;4094;49.948;11.574;2022-08-18T05:30:11;25.20;47.80
8103;DHT22;4094;49.948;11.574;2022-08-18T05:32:43;25.20;47.80
8103;DHT22;4094;49.948;11.574;2022-08-18T05:35:23;25.20;47.80
8103;DHT22;4094;49.948;11.574;2022-08-18T05:38:09;25.30;47.60
8103;DHT22;4094;49.948;11.574;2022-08-18T05:40:43;25.20;47.40
8103;DHT22;4094;49.948;11.574;2022-08-18T05:43:15;25.20;47.30
8103;DHT22;4094;49.948;11.574;2022-08-18T05:45:47;25.20;47.70
8103;DHT22;4094;49.948;11.574;2022-08-18T05:48:18;25.20;48.00
8103;DHT22;4094;49.948;11.574;2022-08-18T05:50:48;25.20;48.10
8103;DHT22;4094;49.948;11.574;2022-08-18T05:53:18;25.20;48.60
8103;DHT22;4094;49.948;11.574;2022-08-18T05:56:09;25.20;49.20
8103;DHT22;4094;49.948;11.574;2022-08-18T05:59:00;25.20;49.40
8103;DHT22;4094;49.948;11.574;2022-08-18T06:01:34;25.20;49.30
8103;DHT22;4094;49.948;11.574;2022-08-18T06:04:16;25.20;49.20
8103;DHT22;4094;49.948;11.574;2022-08-18T06:06:48;25.20;49.00
8103;DHT22;4094;49.948;11.574;2022-08-18T06:09:22;25.20;49.10
8103;DHT22;4094;49.948;11.574;2022-08-18T06:11:53;25.20;49.70
8103;DHT22;4094;49.948;11.574;2022-08-18T06:14:26;25.10;50.10
8103;DHT22;4094;49.948;11.574;2022-08-18T06:17:00;25.10;51.30
8103;DHT22;4094;49.948;11.574;2022-08-18T06:19:42;25.10;51.40
8103;DHT22;4094;49.948;11.574;2022-08-18T06:22:22;25.10;51.30
8103;DHT22;4094;49.948;11.574;2022-08-18T06:25:05;25.00;52.00
8103;DHT22;4094;49.948;11.574;2022-08-18T06:27:40;25.00;52.50
8103;DHT22;4094;49.948;11.574;2022-08-18T06:30:18;25.00;52.60
8103;DHT22;4094;49.948;11.574;2022-08-18T06:33:01;24.90;52.60
8103;DHT22;4094;49.948;11.574;2022-08-18T06:35:37;24.90;52.40
8103;DHT22;4094;49.948;11.574;2022-08-18T06:38:19;24.90;52.00
8103;DHT22;4094;49.948;11.574;2022-08-18T06:41:16;24.80;52.60
8103;DHT22;4094;49.948;11.574;2022-08-18T06:44:07;24.80;52.80
8103;DHT22;4094;49.948;11.574;2022-08-18T06:46:43;24.80;53.10
8103;DHT22;4094;49.948;11.574;2022-08-18T06:49:34;24.80;53.40
8103;DHT22;4094;49.948;11.574;2022-08-18T06:52:24;24.80;53.00
8103;DHT22;4094;49.948;11.574;2022-08-18T06:54:56;24.80;52.90
8103;DHT22;4094;49.948;11.574;2022-08-18T06:57:29;24.80;53.10
8103;DHT22;4094;49.948;11.574;2022-08-18T07:00:09;24.70;53.30
8103;DHT22;4094;49.948;11.574;2022-08-18T07:02:51;24.70;53.40
8103;DHT22;4094;49.948;11.574;2022-08-18T07:05:26;24.70;53.20
8103;DHT22;4094;49.948;11.574;2022-08-18T07:08:12;24.70;53.20
8103;DHT22;4094;49.948;11.574;2022-08-18T07:10:47;24.70;53.20
8103;DHT22;4094;49.948;11.574;2022-08-18T07:13:20;24.70;53.10
8103;DHT22;4094;49.948;11.574;2022-08-18T07:15:49;24.70;53.10
8103;DHT22;4094;49.948;11.574;2022-08-18T07:18:25;24.60;53.20
8103;DHT22;4094;49.948;11.574;2022-08-18T07:20:57;24.70;53.40
8103;DHT22;4094;49.948;11.574;2022-08-18T07:23:30;24.60;53.20
8103;DHT22;4094;49.948;11.574;2022-08-18T07:26:04;24.70;53.40
8103;DHT22;4094;49.948;11.574;2022-08-18T07:28:38;24.70;53.30
8103;DHT22;4094;49.948;11.574;2022-08-18T07:31:18;24.70;53.40
8103;DHT22;4094;49.948;11.574;2022-08-18T07:33:54;24.70;53.50
8103;DHT22;4094;49.948;11.574;2022-08-18T07:36:29;24.60;53.70
8103;DHT22;4094;49.948;11.574;2022-08-18T07:39:05;24.70;53.90
8103;DHT22;4094;49.948;11.574;2022-08-18T07:41:39;24.70;53.90
8103;DHT22;4094;49.948;11.574;2022-08-18T07:44:20;24.70;53.60
8103;DHT22;4094;49.948;11.574;2022-08-18T07:46:55;24.70;53.30
8103;DHT22;4094;49.948;11.574;2022-08-18T07:49:34;24.70;53.40
8103;DHT22;4094;49.948;11.574;2022-08-18T07:52:28;24.80;53.40
8103;DHT22;4094;49.948;11.574;2022-08-18T07:55:22;24.80;53.60
8103;DHT22;4094;49.948;11.574;2022-08-18T07:57:59;24.80;53.30
8103;DHT22;4094;49.948;11.574;2022-08-18T08:00:33;24.80;53.10
8103;DHT22;4094;49.948;11.574;2022-08-18T08:03:36;24.70;53.10
8103;DHT22;4094;49.948;11.574;2022-08-18T08:06:15;24.70;53.00
8103;DHT22;4094;49.948;11.574;2022-08-18T08:08:54;24.70;53.30
8103;DHT22;4094;49.948;11.574;2022-08-18T08:11:37;24.80;53.50
8103;DHT22;4094;49.948;11.574;2022-08-18T08:14:31;24.80;54.30
8103;DHT22;4094;49.948;11.574;2022-08-18T08:17:09;24.90;54.40
8103;DHT22;4094;49.948;11.574;2022-08-18T08:19:58;25.00;54.20
8103;DHT22;4094;49.948;11.574;2022-08-18T08:22:37;25.10;54.00
8103;DHT22;4094;49.948;11.574;2022-08-18T08:25:12;25.20;54.10
8103;DHT22;4094;49.948;11.574;2022-08-18T08:28:13;25.30;54.00
8103;DHT22;4094;49.948;11.574;2022-08-18T08:30:52;25.40;53.90
8103;DHT22;4094;49.948;11.574;2022-08-18T08:33:48;25.40;54.00
8103;DHT22;4094;49.948;11.574;2022-08-18T08:36:22;25.40;53.90
8103;DHT22;4094;49.948;11.574;2022-08-18T08:38:56;25.40;53.70
8103;DHT22;4094;49.948;11.574;2022-08-18T08:41:32;25.40;53.70
8103;DHT22;4094;49.948;11.574;2022-08-18T08:44:07;25.40;53.60
8103;DHT22;4094;49.948;11.574;2022-08-18T08:46:42;25.40;53.60
8103;DHT22;4094;49.948;11.574;2022-08-18T08:49:26;25.40;53.60
8103;DHT22;4094;49.948;11.574;2022-08-18T08:51:59;25.40;53.70
8103;DHT22;4094;49.948;11.574;2022-08-18T08:54:38;25.30;53.50
8103;DHT22;4094;49.948;11.574;2022-08-18T08:57:10;25.30;53.60
8103;DHT22;4094;49.948;11.574;2022-08-18T08:59:41;25.30;53.60
8103;DHT22;4094;49.948;11.574;2022-08-18T09:05:18;25.20;53.80
8103;DHT22;4094;49.948;11.574;2022-08-18T09:08:06;25.30;53.90
8103;DHT22;4094;49.948;11.574;2022-08-18T09:10:56;25.30;54.10
8103;DHT22;4094;49.948;11.574;2022-08-18T09:13:46;25.40;54.10
8103;DHT22;4094;49.948;11.574;2022-08-18T09:16:26;25.40;53.80
8103;DHT22;4094;49.948;11.574;2022-08-18T09:19:29;25.50;53.90
8103;DHT22;4094;49.948;11.574;2022-08-18T09:22:06;25.60;53.50
8103;DHT22;4094;49.948;11.574;2022-08-18T09:24:45;25.70;53.70
8103;DHT22;4094;49.948;11.574;2022-08-18T09:27:31;25.80;53.60
8103;DHT22;4094;49.948;11.574;2022-08-18T09:30:41;25.90;53.60
8103;DHT22;4094;49.948;11.574;2022-08-18T09:33:19;26.00;53.40
8103;DHT22;4094;49.948;11.574;2022-08-18T09:36:07;26.10;53.30
8103;DHT22;4094;49.948;11.574;2022-08-18T09:38:47;26.20;53.20
8103;DHT22;4094;49.948;11.574;2022-08-18T09:41:39;26.20;53.00
8103;DHT22;4094;49.948;11.574;2022-08-18T09:48:01;26.50;52.70
8103;DHT22;4094;49.948;11.574;2022-08-18T09:50:37;26.60;52.90
8103;DHT22;4094;49.948;11.574;2022-08-18T09:59:58;26.90;51.60
8103;DHT22;4094;49.948;11.574;2022-08-18T10:03:15;27.00;51.50
8103;DHT22;4094;49.948;11.574;2022-08-18T10:06:17;27.20;50.40
8103;DHT22;4094;49.948;11.574;2022-08-18T10:12:24;27.30;50.50
8103;DHT22;4094;49.948;11.574;2022-08-18T10:15:17;27.40;50.40
8103;DHT22;4094;49.948;11.574;2022-08-18T10:18:19;27.50;49.60
8103;DHT22;4094;49.948;11.574;2022-08-18T10:21:01;27.60;49.80
8103;DHT22;4094;49.948;11.574;2022-08-18T10:23:49;27.70;49.90
8103;DHT22;4094;49.948;11.574;2022-08-18T10:27:10;27.80;49.50
8103;DHT22;4094;49.948;11.574;2022-08-18T10:29:53;27.90;49.00
8103;DHT22;4094;49.948;11.574;2022-08-18T10:32:42;27.90;49.30
8103;DHT22;4094;49.948;11.574;2022-08-18T10:38:41;28.20;49.30
8103;DHT22;4094;49.948;11.574;2022-08-18T10:41:24;28.20;49.10
8103;DHT22;4094;49.948;11.574;2022-08-18T10:43:59;28.30;48.80
8103;DHT22;4094;49.948;11.574;2022-08-18T10:46:49;28.40;48.90
8103;DHT22;4094;49.948;11.574;2022-08-18T10:49:22;28.50;49.00
8103;DHT22;4094;49.948;11.574;2022-08-18T10:55:22;28.60;48.30
8103;DHT22;4094;49.948;11.574;2022-08-18T10:58:27;28.70;47.80
8103;DHT22;4094;49.948;11.574;2022-08-18T11:01:06;28.80;48.10
8103;DHT22;4094;49.948;11.574;2022-08-18T11:03:50;28.80;47.50
8103;DHT22;4094;49.948;11.574;2022-08-18T11:06:46;28.90;46.90
8103;DHT22;4094;49.948;11.574;2022-08-18T11:09:22;28.80;47.30
8103;DHT22;4094;49.948;11.574;2022-08-18T11:11:58;28.90;47.40
8103;DHT22;4094;49.948;11.574;2022-08-18T11:14:48;28.90;46.70
8103;DHT22;4094;49.948;11.574;2022-08-18T11:17:29;29.00;46.80
8103;DHT22;4094;49.948;11.574;2022-08-18T11:20:05;29.00;47.20
8103;DHT22;4094;49.948;11.574;2022-08-18T11:22:36;29.10;46.20
8103;DHT22;4094;49.948;11.574;2022-08-18T11:25:19;29.10;46.10
8103;DHT22;4094;49.948;11.574;2022-08-18T11:27:52;29.10;46.60
8103;DHT22;4094;49.948;11.574;2022-08-18T11:30:23;29.10;47.10
8103;DHT22;4094;49.948;11.574;2022-08-18T11:32:58;29.20;47.10
8103;DHT22;4094;49.948;11.574;2022-08-18T11:35:32;29.30;47.20
8103;DHT22;4094;49.948;11.574;2022-08-18T11:38:04;29.40;46.80
8103;DHT22;4094;49.948;11.574;2022-08-18T11:40:51;29.50;46.80
8103;DHT22;4094;49.948;11.574;2022-08-18T11:43:41;29.60;46.60
8103;DHT22;4094;49.948;11.574;2022-08-18T11:46:22;29.70;46.20
8103;DHT22;4094;49.948;11.574;2022-08-18T11:48:59;29.70;45.60
8103;DHT22;4094;49.948;11.574;2022-08-18T11:51:32;29.80;46.10
8103;DHT22;4094;49.948;11.574;2022-08-18T11:54:19;29.80;45.30
8103;DHT22;4094;49.948;11.574;2022-08-18T11:56:51;29.80;45.40
8103;DHT22;4094;49.948;11.574;2022-08-18T11:59:31;29.80;45.60
8103;DHT22;4094;49.948;11.574;2022-08-18T12:02:23;29.80;45.40
8103;DHT22;4094;49.948;11.574;2022-08-18T12:04:54;29.80;45.60
8103;DHT22;4094;49.948;11.574;2022-08-18T12:07:40;29.80;45.50
8103;DHT22;4094;49.948;11.574;2022-08-18T12:10:26;29.90;45.80
8103;DHT22;4094;49.948;11.574;2022-08-18T12:12:57;30.00;45.70
8103;DHT22;4094;49.948;11.574;2022-08-18T12:15:31;30.10;45.30
8103;DHT22;4094;49.948;11.574;2022-08-18T12:18:20;30.10;44.80
8103;DHT22;4094;49.948;11.574;2022-08-18T12:20:56;30.20;44.70
8103;DHT22;4094;49.948;11.574;2022-08-18T12:23:30;30.20;44.60
8103;DHT22;4094;49.948;11.574;2022-08-18T12:26:21;30.20;44.40
8103;DHT22;4094;49.948;11.574;2022-08-18T12:29:05;30.20;44.60
8103;DHT22;4094;49.948;11.574;2022-08-18T12:31:56;30.20;45.00
8103;DHT22;4094;49.948;11.574;2022-08-18T12:34:25;30.20;44.20
8103;DHT22;4094;49.948;11.574;2022-08-18T12:36:57;30.10;44.50
8103;DHT22;4094;49.948;11.574;2022-08-18T12:39:29;30.10;44.40
8103;DHT22;4094;49.948;11.574;2022-08-18T12:41:59;30.10;44.70
8103;DHT22;4094;49.948;11.574;2022-08-18T12:44:29;30.10;44.70
8103;DHT22;4094;49.948;11.574;2022-08-18T12:47:00;30.10;44.70
8103;DHT22;4094;49.948;11.574;2022-08-18T12:49:30;30.10;44.70
8103;DHT22;4094;49.948;11.574;2022-08-18T12:52:00;30.10;44.50
8103;DHT22;4094;49.948;11.574;2022-08-18T12:54:31;30.10;44.90
8103;DHT22;4094;49.948;11.574;2022-08-18T12:57:03;30.10;44.80
8103;DHT22;4094;49.948;11.574;2022-08-18T12:59:33;30.10;44.50
8103;DHT22;4094;49.948;11.574;2022-08-18T13:02:05;30.20;44.40
8103;DHT22;4094;49.948;11.574;2022-08-18T13:04:38;30.10;44.60
8103;DHT22;4094;49.948;11.574;2022-08-18T13:07:10;30.20;44.70
8103;DHT22;4094;49.948;11.574;2022-08-18T13:09:41;30.20;44.70
8103;DHT22;4094;49.948;11.574;2022-08-18T13:12:21;30.20;44.80
8103;DHT22;4094;49.948;11.574;2022-08-18T13:14:54;30.20;45.00
8103;DHT22;4094;49.948;11.574;2022-08-18T13:17:26;30.30;45.10
8103;DHT22;4094;49.948;11.574;2022-08-18T13:20:03;30.30;45.00
8103;DHT22;4094;49.948;11.574;2022-08-18T13:22:34;30.40;44.60
8103;DHT22;4094;49.948;11.574;2022-08-18T13:25:06;30.40;45.10
8103;DHT22;4094;49.948;11.574;2022-08-18T13:27:36;30.50;45.10
8103;DHT22;4094;49.948;11.574;2022-08-18T13:30:15;30.60;44.30
8103;DHT22;4094;49.948;11.574;2022-08-18T13:33:00;30.70;44.40
8103;DHT22;4094;49.948;11.574;2022-08-18T13:35:51;30.80;44.40
8103;DHT22;4094;49.948;11.574;2022-08-18T13:38:22;30.80;44.10
8103;DHT22;4094;49.948;11.574;2022-08-18T13:40:57;30.90;44.60
8103;DHT22;4094;49.948;11.574;2022-08-18T13:43:30;30.90;44.10
8103;DHT22;4094;49.948;11.574;2022-08-18T13:46:01;31.00;44.10
8103;DHT22;4094;49.948;11.574;2022-08-18T13:48:32;31.10;44.10
8103;DHT22;4094;49.948;11.574;2022-08-18T13:51:03;31.10;44.30
8103;DHT22;4094;49.948;11.574;2022-08-18T13:53:36;31.10;44.20
8103;DHT22;4094;49.948;11.574;2022-08-18T13:56:18;31.20;43.80
8103;DHT22;4094;49.948;11.574;2022-08-18T13:58:58;31.30;43.30
8103;DHT22;4094;49.948;11.574;2022-08-18T14:01:27;31.30;43.70
8103;DHT22;4094;49.948;11.574;2022-08-18T14:04:19;31.30;43.80
8103;DHT22;4094;49.948;11.574;2022-08-18T14:06:49;31.30;43.50
8103;DHT22;4094;49.948;11.574;2022-08-18T14:09:26;31.30;43.70
8103;DHT22;4094;49.948;11.574;2022-08-18T14:12:06;31.30;43.60
8103;DHT22;4094;49.948;11.574;2022-08-18T14:14:49;31.40;43.80
8103;DHT22;4094;49.948;11.574;2022-08-18T14:17:20;31.40;43.00
8103;DHT22;4094;49.948;11.574;2022-08-18T14:19:53;31.40;43.30
8103;DHT22;4094;49.948;11.574;2022-08-18T14:22:49;31.50;43.20
8103;DHT22;4094;49.948;11.574;2022-08-18T14:25:36;31.50;42.90
8103;DHT22;4094;49.948;11.574;2022-08-18T14:28:27;31.50;42.90
8103;DHT22;4094;49.948;11.574;2022-08-18T14:30:57;31.50;42.70
8103;DHT22;4094;49.948;11.574;2022-08-18T14:33:29;31.50;42.90
8103;DHT22;4094;49.948;11.574;2022-08-18T14:36:20;31.50;42.70
8103;DHT22;4094;49.948;11.574;2022-08-18T14:38:57;31.50;42.60
8103;DHT22;4094;49.948;11.574;2022-08-18T14:41:27;31.50;42.70
8103;DHT22;4094;49.948;11.574;2022-08-18T14:43:57;31.50;42.80
8103;DHT22;4094;49.948;11.574;2022-08-18T14:46:41;31.50;42.80
8103;DHT22;4094;49.948;11.574;2022-08-18T14:49:22;31.50;42.80
8103;DHT22;4094;49.948;11.574;2022-08-18T14:51:58;31.50;42.60
8103;DHT22;4094;49.948;11.574;2022-08-18T14:54:29;31.40;42.60
8103;DHT22;4094;49.948;11.574;2022-08-18T14:57:00;31.40;42.20
8103;DHT22;4094;49.948;11.574;2022-08-18T14:59:30;31.40;42.40
8103;DHT22;4094;49.948;11.574;2022-08-18T15:02:05;31.40;42.60
8103;DHT22;4094;49.948;11.574;2022-08-18T15:04:40;31.40;42.60
8103;DHT22;4094;49.948;11.574;2022-08-18T15:07:26;31.30;42.60
8103;DHT22;4094;49.948;11.574;2022-08-18T15:09:59;31.30;42.50
8103;DHT22;4094;49.948;11.574;2022-08-18T15:12:43;31.30;42.60
8103;DHT22;4094;49.948;11.574;2022-08-18T15:15:13;31.30;42.60
8103;DHT22;4094;49.948;11.574;2022-08-18T15:17:45;31.30;42.70
8103;DHT22;4094;49.948;11.574;2022-08-18T15:20:21;31.20;42.50
8103;DHT22;4094;49.948;11.574;2022-08-18T15:23:00;31.10;42.60
8103;DHT22;4094;49.948;11.574;2022-08-18T15:25:55;31.10;42.80
8103;DHT22;4094;49.948;11.574;2022-08-18T15:28:26;31.00;42.90
8103;DHT22;4094;49.948;11.574;2022-08-18T15:30:56;31.00;42.90
8103;DHT22;4094;49.948;11.574;2022-08-18T15:33:45;30.90;42.90
8103;DHT22;4094;49.948;11.574;2022-08-18T15:36:18;30.90;43.10
8103;DHT22;4094;49.948;11.574;2022-08-18T15:38:57;30.80;43.20
8103;DHT22;4094;49.948;11.574;2022-08-18T15:41:31;30.80;43.30
8103;DHT22;4094;49.948;11.574;2022-08-18T15:44:02;30.80;43.30
8103;DHT22;4094;49.948;11.574;2022-08-18T15:46:33;30.80;43.40
8103;DHT22;4094;49.948;11.574;2022-08-18T15:49:03;30.70;43.40
8103;DHT22;4094;49.948;11.574;2022-08-18T15:51:40;30.70;43.50
8103;DHT22;4094;49.948;11.574;2022-08-18T15:54:13;30.70;43.50
8103;DHT22;4094;49.948;11.574;2022-08-18T15:56:42;30.60;43.40
8103;DHT22;4094;49.948;11.574;2022-08-18T15:59:25;30.60;43.50
8103;DHT22;4094;49.948;11.574;2022-08-18T16:02:08;30.50;43.60
8103;DHT22;4094;49.948;11.574;2022-08-18T16:04:46;30.50;43.60
8103;DHT22;4094;49.948;11.574;2022-08-18T16:07:16;30.40;43.90
8103;DHT22;4094;49.948;11.574;2022-08-18T16:10:08;30.50;43.80
8103;DHT22;4094;49.948;11.574;2022-08-18T16:12:37;30.40;43.70
8103;DHT22;4094;49.948;11.574;2022-08-18T16:15:13;30.40;43.80
8103;DHT22;4094;49.948;11.574;2022-08-18T16:17:46;30.30;43.80
8103;DHT22;4094;49.948;11.574;2022-08-18T16:20:16;30.30;43.80
8103;DHT22;4094;49.948;11.574;2022-08-18T16:22:46;30.30;43.80
8103;DHT22;4094;49.948;11.574;2022-08-18T16:25:18;30.30;43.70
8103;DHT22;4094;49.948;11.574;2022-08-18T16:27:48;30.30;43.80
8103;DHT22;4094;49.948;11.574;2022-08-18T16:30:19;30.20;43.90
8103;DHT22;4094;49.948;11.574;2022-08-18T16:32:49;30.20;44.10
8103;DHT22;4094;49.948;11.574;2022-08-18T16:35:20;30.20;44.00
8103;DHT22;4094;49.948;11.574;2022-08-18T16:37:49;30.20;44.10
8103;DHT22;4094;49.948;11.574;2022-08-18T16:40:21;30.20;44.00
8103;DHT22;4094;49.948;11.574;2022-08-18T16:42:54;30.10;44.20
8103;DHT22;4094;49.948;11.574;2022-08-18T16:45:25;30.10;44.10
8103;DHT22;4094;49.948;11.574;2022-08-18T16:47:55;30.10;44.20
8103;DHT22;4094;49.948;11.574;2022-08-18T16:50:24;30.10;44.30
8103;DHT22;4094;49.948;11.574;2022-08-18T16:52:54;30.10;44.20
8103;DHT22;4094;49.948;11.574;2022-08-18T16:55:24;30.00;44.20
8103;DHT22;4094;49.948;11.574;2022-08-18T16:57:53;30.00;44.40
8103;DHT22;4094;49.948;11.574;2022-08-18T17:00:42;30.00;44.40
8103;DHT22;4094;49.948;11.574;2022-08-18T17:03:29;29.90;44.30
8103;DHT22;4094;49.948;11.574;2022-08-18T17:06:17;29.90;44.30
8103;DHT22;4094;49.948;11.574;2022-08-18T17:08:46;29.90;44.40